Terminal Aerodrome Forecast
Issued by NWS

Home | Current Version | Previous Version | Text Only | Print | Product List | Glossary On
Versions: 1 2 3 4 5 6 7 8 9 10 11 12 13 14
000
FTUS44 KMAF 241720
TAFINK
TAF
KINK 241720Z 2418/2518 19009KT P6SM BKN250
     FM250300 14013KT P6SM BKN150
     FM250600 04020G30KT P6SM BKN100
     FM251100 01020G30KT P6SM BKN015
     FM251700 02016G26KT P6SM BKN030=

USA.gov is the U.S. government's official web portal to all federal, state and local government web resources and services.